createdAt,value
2017-12-17T00:00:14.853Z,1010.1
2017-12-17T00:00:40.948Z,1010.11
2017-12-17T00:01:07.056Z,1010.11
2017-12-17T00:01:33.148Z,1010.09
2017-12-17T00:01:59.251Z,1010.13
2017-12-17T00:02:25.356Z,1010.11
2017-12-17T00:02:51.452Z,1010.07
2017-12-17T00:03:17.556Z,1010.03
2017-12-17T00:03:43.670Z,1010.14
2017-12-17T00:04:09.802Z,1010.11
2017-12-17T00:04:35.912Z,1010.12
2017-12-17T00:05:02.035Z,1010.12
2017-12-17T00:05:28.131Z,1010.12
2017-12-17T00:05:54.239Z,1010.12
2017-12-17T00:06:20.350Z,1010.12
2017-12-17T00:06:46.455Z,1010.12
2017-12-17T00:07:12.548Z,1010.15
2017-12-17T00:07:38.645Z,1010.15
2017-12-17T00:08:04.751Z,1010.13
2017-12-17T00:08:30.855Z,1010.15
2017-12-17T00:08:56.963Z,1010.15
2017-12-17T00:09:23.056Z,1010.13
2017-12-17T00:09:49.178Z,1010.13
2017-12-17T00:10:15.273Z,1010.15
2017-12-17T00:10:41.392Z,1010.15
2017-12-17T00:11:07.481Z,1010.15
2017-12-17T00:11:33.578Z,1010.11
2017-12-17T00:11:59.684Z,1010.15
2017-12-17T00:12:25.780Z,1010.16
2017-12-17T00:12:51.927Z,1010.14
2017-12-17T00:13:18.033Z,1010.11
2017-12-17T00:13:44.131Z,1010.16
2017-12-17T00:14:10.234Z,1010.15
2017-12-17T00:14:36.330Z,1010.13
2017-12-17T00:15:02.444Z,1010.14
2017-12-17T00:15:28.534Z,1010.15
2017-12-17T00:15:54.627Z,1010.14
2017-12-17T00:16:20.729Z,1010.19
2017-12-17T00:16:46.836Z,1010.15
2017-12-17T00:17:12.931Z,1010.16
2017-12-17T00:17:39.034Z,1010.12
2017-12-17T00:18:05.132Z,1010.17
2017-12-17T00:18:31.236Z,1010.16
2017-12-17T00:18:57.350Z,1010.18
2017-12-17T00:19:23.454Z,1010.2
2017-12-17T00:19:49.555Z,1010.17
2017-12-17T00:20:15.653Z,1010.18
2017-12-17T00:20:41.755Z,1010.19
2017-12-17T00:21:07.860Z,1010.19
2017-12-17T00:21:33.956Z,1010.21
2017-12-17T00:22:00.067Z,1010.23
2017-12-17T00:22:26.161Z,1010.21
2017-12-17T00:22:52.267Z,1010.18
2017-12-17T00:23:18.363Z,1010.17
2017-12-17T00:23:44.468Z,1010.13
2017-12-17T00:24:10.568Z,1010.13
2017-12-17T00:24:36.664Z,1010.14
2017-12-17T00:25:02.795Z,1010.12
2017-12-17T00:25:28.900Z,1010.15
2017-12-17T00:25:55.000Z,1010.19
2017-12-17T00:26:21.094Z,1010.18
2017-12-17T00:26:47.210Z,1010.16
2017-12-17T00:27:13.313Z,1010.15
2017-12-17T00:27:39.405Z,1010.1
2017-12-17T00:28:05.503Z,1010.12
2017-12-17T00:28:31.621Z,1010.13
2017-12-17T00:28:57.725Z,1010.17
2017-12-17T00:29:23.825Z,1010.13
2017-12-17T00:29:49.923Z,1010.09
2017-12-17T00:30:16.022Z,1010.13
2017-12-17T00:30:42.164Z,1010.11
2017-12-17T00:31:08.265Z,1010.13
2017-12-17T00:31:34.361Z,1010.13
2017-12-17T00:32:00.461Z,1010.12
2017-12-17T00:32:26.572Z,1010.15
2017-12-17T00:32:52.683Z,1010.12
2017-12-17T00:33:18.775Z,1010.13
2017-12-17T00:33:44.879Z,1010.11
2017-12-17T00:34:10.977Z,1010.16
2017-12-17T00:34:37.080Z,1010.12
2017-12-17T00:35:03.178Z,1010.14
2017-12-17T00:35:29.280Z,1010.16
2017-12-17T00:35:55.400Z,1010.16
2017-12-17T00:36:21.500Z,1010.15
2017-12-17T00:36:47.612Z,1010.17
2017-12-17T00:37:13.702Z,1010.15
2017-12-17T00:37:39.808Z,1010.17
2017-12-17T00:38:05.911Z,1010.16
2017-12-17T00:38:32.006Z,1010.15
2017-12-17T00:38:58.110Z,1010.17
2017-12-17T00:39:24.205Z,1010.19
2017-12-17T00:39:50.326Z,1010.12
2017-12-17T00:40:16.422Z,1010.19
2017-12-17T00:40:42.533Z,1010.19
2017-12-17T00:41:08.628Z,1010.15
2017-12-17T00:41:34.743Z,1010.17
2017-12-17T00:42:00.841Z,1010.2
2017-12-17T00:42:26.950Z,1010.15
2017-12-17T00:42:53.063Z,1010.18
2017-12-17T00:43:19.158Z,1010.18
2017-12-17T00:43:45.265Z,1010.19
2017-12-17T00:44:11.361Z,1010.2
2017-12-17T00:44:37.483Z,1010.16
2017-12-17T00:45:03.582Z,1010.16
2017-12-17T00:45:29.679Z,1010.19
2017-12-17T00:45:55.792Z,1010.16
2017-12-17T00:46:21.925Z,1010.17
2017-12-17T00:46:48.029Z,1010.2
2017-12-17T00:47:14.124Z,1010.22
2017-12-17T00:47:40.219Z,1010.19
2017-12-17T00:48:06.326Z,1010.22
2017-12-17T00:48:32.417Z,1010.22
2017-12-17T00:48:58.526Z,1010.24
2017-12-17T00:49:24.621Z,1010.2
2017-12-17T00:49:50.721Z,1010.19
2017-12-17T00:50:16.825Z,1010.21
2017-12-17T00:50:42.922Z,1010.23
2017-12-17T00:51:09.023Z,1010.21
2017-12-17T00:51:35.120Z,1010.24
2017-12-17T00:52:01.226Z,1010.24
2017-12-17T00:52:27.328Z,1010.23
2017-12-17T00:52:53.422Z,1010.28
2017-12-17T00:53:19.528Z,1010.25
2017-12-17T00:53:45.625Z,1010.26
2017-12-17T00:54:11.725Z,1010.31
2017-12-17T00:54:37.841Z,1010.35
2017-12-17T00:55:03.940Z,1010.32
2017-12-17T00:55:30.055Z,1010.38
2017-12-17T00:55:56.155Z,1010.34
2017-12-17T00:56:22.268Z,1010.34
2017-12-17T00:56:48.370Z,1010.36
2017-12-17T00:57:14.469Z,1010.32
2017-12-17T00:57:40.589Z,1010.36
2017-12-17T00:58:06.702Z,1010.37
2017-12-17T00:58:32.806Z,1010.41
2017-12-17T00:58:58.910Z,1010.42
2017-12-17T00:59:25.010Z,1010.42
2017-12-17T00:59:51.109Z,1010.45
2017-12-17T01:00:17.207Z,1010.4
2017-12-17T01:00:43.308Z,1010.42
2017-12-17T01:01:09.405Z,1010.45
2017-12-17T01:01:35.502Z,1010.46
2017-12-17T01:02:01.607Z,1010.46
2017-12-17T01:02:27.705Z,1010.47
2017-12-17T01:02:53.809Z,1010.48
2017-12-17T01:03:19.908Z,1010.44
2017-12-17T01:03:46.009Z,1010.5
2017-12-17T01:04:12.113Z,1010.45
2017-12-17T01:04:38.213Z,1010.48
2017-12-17T01:05:04.331Z,1010.53
2017-12-17T01:05:30.432Z,1010.52
2017-12-17T01:05:56.528Z,1010.56
2017-12-17T01:06:22.633Z,1010.52
2017-12-17T01:06:48.734Z,1010.49
2017-12-17T01:07:14.833Z,1010.52
2017-12-17T01:07:40.949Z,1010.57
2017-12-17T01:08:07.055Z,1010.52
2017-12-17T01:08:33.158Z,1010.5
2017-12-17T01:08:59.255Z,1010.56
2017-12-17T01:09:25.356Z,1010.51
2017-12-17T01:09:51.457Z,1010.55
2017-12-17T01:10:17.563Z,1010.54
2017-12-17T01:10:43.664Z,1010.54
2017-12-17T01:11:09.759Z,1010.55
2017-12-17T01:11:35.862Z,1010.57
2017-12-17T01:12:01.986Z,1010.61
2017-12-17T01:12:28.086Z,1010.59
2017-12-17T01:12:54.182Z,1010.56
2017-12-17T01:13:20.284Z,1010.6
2017-12-17T01:13:46.384Z,1010.58
2017-12-17T01:14:12.498Z,1010.56
2017-12-17T01:14:38.591Z,1010.57
2017-12-17T01:15:04.693Z,1010.6
2017-12-17T01:15:30.804Z,1010.62
2017-12-17T01:15:56.909Z,1010.6
2017-12-17T01:16:23.009Z,1010.59
2017-12-17T01:16:49.106Z,1010.59
2017-12-17T01:17:15.211Z,1010.6
2017-12-17T01:17:41.306Z,1010.59
2017-12-17T01:18:07.417Z,1010.6
2017-12-17T01:18:33.531Z,1010.57
2017-12-17T01:18:59.632Z,1010.55
2017-12-17T01:19:25.726Z,1010.53
2017-12-17T01:19:51.830Z,1010.59
2017-12-17T01:20:17.926Z,1010.59
2017-12-17T01:20:44.023Z,1010.6
2017-12-17T01:21:10.127Z,1010.6
2017-12-17T01:21:36.228Z,1010.62
2017-12-17T01:22:02.323Z,1010.63
2017-12-17T01:22:28.431Z,1010.63
2017-12-17T01:22:54.527Z,1010.6
2017-12-17T01:23:20.623Z,1010.62
2017-12-17T01:23:46.728Z,1010.62
2017-12-17T01:24:12.830Z,1010.65
2017-12-17T01:24:38.924Z,1010.61
2017-12-17T01:25:05.028Z,1010.64
2017-12-17T01:25:31.129Z,1010.66
2017-12-17T01:25:57.221Z,1010.66
2017-12-17T01:26:23.326Z,1010.67
2017-12-17T01:26:49.428Z,1010.69
2017-12-17T01:27:15.544Z,1010.71
2017-12-17T01:27:41.642Z,1010.72
2017-12-17T01:28:07.746Z,1010.74
2017-12-17T01:28:33.858Z,1010.74
2017-12-17T01:28:59.962Z,1010.73
2017-12-17T01:29:26.059Z,1010.74
2017-12-17T01:29:52.180Z,1010.78
2017-12-17T01:30:18.282Z,1010.79
2017-12-17T01:30:44.378Z,1010.79
2017-12-17T01:31:10.478Z,1010.81
2017-12-17T01:31:36.584Z,1010.8
2017-12-17T01:32:02.683Z,1010.84
2017-12-17T01:32:28.792Z,1010.83
2017-12-17T01:32:54.886Z,1010.83
2017-12-17T01:33:20.980Z,1010.87
2017-12-17T01:33:47.103Z,1010.85
2017-12-17T01:34:13.202Z,1010.86
2017-12-17T01:34:39.301Z,1010.89
2017-12-17T01:35:05.397Z,1010.82
2017-12-17T01:35:31.529Z,1010.84
2017-12-17T01:35:57.606Z,1010.89
2017-12-17T01:36:23.696Z,1010.86
2017-12-17T01:36:49.801Z,1010.87
2017-12-17T01:37:15.923Z,1010.88
2017-12-17T01:37:42.022Z,1010.92
2017-12-17T01:38:08.117Z,1010.86
2017-12-17T01:38:34.219Z,1010.86
2017-12-17T01:39:00.312Z,1010.87
2017-12-17T01:39:26.416Z,1010.87
2017-12-17T01:39:52.516Z,1010.92
2017-12-17T01:40:18.617Z,1010.9
2017-12-17T01:40:44.722Z,1010.91
2017-12-17T01:41:10.878Z,1010.96
2017-12-17T01:41:36.917Z,1010.96
2017-12-17T01:42:03.020Z,1010.97
2017-12-17T01:42:29.117Z,1010.94
2017-12-17T01:42:55.219Z,1010.98
2017-12-17T01:43:21.319Z,1010.96
2017-12-17T01:43:47.415Z,1010.97
2017-12-17T01:44:13.517Z,1010.98
2017-12-17T01:44:39.612Z,1010.98
2017-12-17T01:45:05.710Z,1011
2017-12-17T01:45:31.812Z,1010.98
2017-12-17T01:46:04.183Z,1010.97
2017-12-17T01:46:30.281Z,1010.96
2017-12-17T01:46:56.377Z,1010.95
2017-12-17T01:47:22.479Z,1010.95
2017-12-17T01:47:48.590Z,1010.96
2017-12-17T01:48:14.695Z,1010.95
2017-12-17T01:48:40.796Z,1010.97
2017-12-17T01:49:06.893Z,1010.98
2017-12-17T01:49:32.998Z,1010.99
2017-12-17T01:49:59.093Z,1011.01
2017-12-17T01:50:25.227Z,1011
2017-12-17T01:50:51.328Z,1010.97
2017-12-17T01:51:17.423Z,1010.97
2017-12-17T01:51:43.526Z,1011
2017-12-17T01:52:09.626Z,1011.01
2017-12-17T01:52:35.722Z,1011.03
2017-12-17T01:53:01.826Z,1011
2017-12-17T01:53:27.921Z,1011.05
2017-12-17T01:53:54.027Z,1011.04
2017-12-17T01:54:20.127Z,1011.04
2017-12-17T01:54:46.244Z,1011.08
2017-12-17T01:55:12.358Z,1011.1
2017-12-17T01:55:38.458Z,1011.09
2017-12-17T01:56:04.555Z,1011.11
2017-12-17T01:56:30.659Z,1011.12
2017-12-17T01:56:56.755Z,1011.11
2017-12-17T01:57:22.877Z,1011.12
2017-12-17T01:57:48.969Z,1011.1
2017-12-17T01:58:15.066Z,1011.1
2017-12-17T01:58:41.171Z,1011.11
2017-12-17T01:59:07.271Z,1011.09
2017-12-17T01:59:33.387Z,1011.09
2017-12-17T01:59:59.490Z,1011.11
2017-12-17T02:00:25.590Z,1011.14
2017-12-17T02:00:51.686Z,1011.11
2017-12-17T02:01:17.787Z,1011.1
2017-12-17T02:01:43.889Z,1011.11
2017-12-17T02:02:10.008Z,1011.12
2017-12-17T02:02:36.102Z,1011.13
2017-12-17T02:03:02.209Z,1011.14
2017-12-17T02:03:28.305Z,1011.12
2017-12-17T02:03:54.410Z,1011.12
2017-12-17T02:04:20.513Z,1011.17
2017-12-17T02:04:46.609Z,1011.21
2017-12-17T02:05:12.716Z,1011.16
2017-12-17T02:05:38.814Z,1011.19
2017-12-17T02:06:04.913Z,1011.21
2017-12-17T02:06:31.011Z,1011.21
2017-12-17T02:06:57.114Z,1011.18
2017-12-17T02:07:23.209Z,1011.17
2017-12-17T02:07:49.309Z,1011.2
2017-12-17T02:08:15.412Z,1011.19
2017-12-17T02:08:41.514Z,1011.18
2017-12-17T02:09:07.612Z,1011.2
2017-12-17T02:09:33.707Z,1011.24
2017-12-17T02:09:59.813Z,1011.19
2017-12-17T02:10:25.912Z,1011.23
2017-12-17T02:10:52.009Z,1011.22
2017-12-17T02:11:18.107Z,1011.22
2017-12-17T02:11:44.210Z,1011.22
2017-12-17T02:12:10.303Z,1011.22
2017-12-17T02:12:36.408Z,1011.24
2017-12-17T02:13:02.503Z,1011.19
2017-12-17T02:13:28.606Z,1011.22
2017-12-17T02:13:54.701Z,1011.23
2017-12-17T02:14:20.800Z,1011.26
2017-12-17T02:14:46.900Z,1011.23
2017-12-17T02:15:13.002Z,1011.25
2017-12-17T02:15:39.106Z,1011.24
2017-12-17T02:16:05.204Z,1011.26
2017-12-17T02:16:31.306Z,1011.27
2017-12-17T02:16:57.406Z,1011.27
2017-12-17T02:17:23.524Z,1011.24
2017-12-17T02:17:49.615Z,1011.28
2017-12-17T02:18:15.718Z,1011.31
2017-12-17T02:18:41.811Z,1011.3
2017-12-17T02:19:07.918Z,1011.27
2017-12-17T02:19:34.017Z,1011.28
2017-12-17T02:20:00.134Z,1011.31
2017-12-17T02:20:26.233Z,1011.28
2017-12-17T02:20:52.333Z,1011.3
2017-12-17T02:21:18.436Z,1011.26
2017-12-17T02:21:44.534Z,1011.3
2017-12-17T02:22:10.638Z,1011.28
2017-12-17T02:22:36.732Z,1011.33
2017-12-17T02:23:02.837Z,1011.28
2017-12-17T02:23:28.934Z,1011.29
2017-12-17T02:23:55.026Z,1011.3
2017-12-17T02:24:21.121Z,1011.29
2017-12-17T02:24:47.231Z,1011.32
2017-12-17T02:25:13.326Z,1011.29
2017-12-17T02:25:39.429Z,1011.32
2017-12-17T02:26:05.525Z,1011.31
2017-12-17T02:26:31.627Z,1011.33
2017-12-17T02:26:57.721Z,1011.31
2017-12-17T02:27:23.824Z,1011.34
2017-12-17T02:27:49.927Z,1011.32
2017-12-17T02:28:16.025Z,1011.33
2017-12-17T02:28:42.123Z,1011.32
2017-12-17T02:29:08.224Z,1011.3
2017-12-17T02:29:34.344Z,1011.33
2017-12-17T02:30:00.440Z,1011.34
2017-12-17T02:30:26.561Z,1011.33
2017-12-17T02:30:52.658Z,1011.29
2017-12-17T02:31:18.758Z,1011.34
2017-12-17T02:31:44.882Z,1011.32
2017-12-17T02:32:10.990Z,1011.31
2017-12-17T02:32:37.095Z,1011.28
2017-12-17T02:33:03.194Z,1011.31
2017-12-17T02:33:29.293Z,1011.33
2017-12-17T02:33:55.389Z,1011.28
2017-12-17T02:34:21.492Z,1011.31
2017-12-17T02:34:47.595Z,1011.32
2017-12-17T02:35:13.691Z,1011.35
2017-12-17T02:35:39.794Z,1011.36
2017-12-17T02:36:05.890Z,1011.35
2017-12-17T02:36:31.987Z,1011.34
2017-12-17T02:36:58.088Z,1011.37
2017-12-17T02:37:24.185Z,1011.35
2017-12-17T02:37:50.287Z,1011.37
2017-12-17T02:38:16.395Z,1011.34
2017-12-17T02:38:42.490Z,1011.39
2017-12-17T02:39:08.591Z,1011.37
2017-12-17T02:39:34.694Z,1011.33
2017-12-17T02:40:00.796Z,1011.35
2017-12-17T02:40:26.891Z,1011.39
2017-12-17T02:40:52.991Z,1011.36
2017-12-17T02:41:19.089Z,1011.34
2017-12-17T02:41:45.185Z,1011.37
2017-12-17T02:42:11.283Z,1011.37
2017-12-17T02:42:37.389Z,1011.38
2017-12-17T02:43:03.482Z,1011.36
2017-12-17T02:43:29.600Z,1011.37
2017-12-17T02:43:55.709Z,1011.38
2017-12-17T02:44:21.809Z,1011.44
2017-12-17T02:44:47.909Z,1011.42
2017-12-17T02:45:14.003Z,1011.42
2017-12-17T02:45:40.103Z,1011.42
2017-12-17T02:46:06.203Z,1011.41
2017-12-17T02:46:32.309Z,1011.43
2017-12-17T02:46:58.407Z,1011.41
2017-12-17T02:47:24.520Z,1011.47
2017-12-17T02:47:50.615Z,1011.47
2017-12-17T02:48:16.719Z,1011.47
2017-12-17T02:48:42.909Z,1011.47
2017-12-17T02:49:08.953Z,1011.47
2017-12-17T02:49:35.058Z,1011.49
2017-12-17T02:50:01.162Z,1011.52
2017-12-17T02:50:27.269Z,1011.48
2017-12-17T02:50:53.372Z,1011.47
2017-12-17T02:51:19.491Z,1011.46
2017-12-17T02:51:45.587Z,1011.48
2017-12-17T02:52:11.692Z,1011.49
2017-12-17T02:52:37.790Z,1011.48
2017-12-17T02:53:03.888Z,1011.48
2017-12-17T02:53:29.992Z,1011.48
2017-12-17T02:53:56.090Z,1011.52
2017-12-17T02:54:22.184Z,1011.48
2017-12-17T02:54:48.287Z,1011.5
2017-12-17T02:55:14.384Z,1011.5
2017-12-17T02:55:40.480Z,1011.51
2017-12-17T02:56:06.583Z,1011.47
2017-12-17T02:56:32.677Z,1011.49
2017-12-17T02:56:58.814Z,1011.5
2017-12-17T02:57:24.985Z,1011.53
2017-12-17T02:57:51.030Z,1011.49
2017-12-17T02:58:17.125Z,1011.47
2017-12-17T02:58:43.230Z,1011.51
2017-12-17T02:59:09.322Z,1011.52
2017-12-17T02:59:35.425Z,1011.5
2017-12-17T03:00:01.523Z,1011.54
2017-12-17T03:00:27.620Z,1011.52
2017-12-17T03:00:53.715Z,1011.53
2017-12-17T03:01:19.815Z,1011.57
2017-12-17T03:01:45.913Z,1011.51
2017-12-17T03:02:12.015Z,1011.56
2017-12-17T03:02:38.132Z,1011.53
2017-12-17T03:03:04.235Z,1011.56
2017-12-17T03:03:30.340Z,1011.57
2017-12-17T03:03:56.435Z,1011.56
2017-12-17T03:04:22.541Z,1011.55
2017-12-17T03:04:48.636Z,1011.54
2017-12-17T03:05:14.733Z,1011.53
2017-12-17T03:05:40.830Z,1011.54
2017-12-17T03:06:06.938Z,1011.58
2017-12-17T03:06:33.035Z,1011.59
2017-12-17T03:06:59.130Z,1011.54
2017-12-17T03:07:25.227Z,1011.58
2017-12-17T03:07:51.342Z,1011.58
2017-12-17T03:08:17.448Z,1011.56
2017-12-17T03:08:43.552Z,1011.59
2017-12-17T03:09:09.652Z,1011.57
2017-12-17T03:09:35.762Z,1011.57
2017-12-17T03:10:01.868Z,1011.58
2017-12-17T03:10:27.978Z,1011.6
2017-12-17T03:10:54.083Z,1011.61
2017-12-17T03:11:20.184Z,1011.61
2017-12-17T03:11:46.283Z,1011.6
2017-12-17T03:12:12.380Z,1011.61
2017-12-17T03:12:38.481Z,1011.64
2017-12-17T03:13:04.584Z,1011.62
2017-12-17T03:13:30.680Z,1011.64
2017-12-17T03:13:56.786Z,1011.61
2017-12-17T03:14:22.882Z,1011.62
2017-12-17T03:14:48.985Z,1011.65
2017-12-17T03:15:15.083Z,1011.62
2017-12-17T03:15:41.184Z,1011.64
2017-12-17T03:16:07.279Z,1011.67
2017-12-17T03:16:33.383Z,1011.65
2017-12-17T03:16:59.477Z,1011.65
2017-12-17T03:17:25.574Z,1011.69
2017-12-17T03:17:51.678Z,1011.63
2017-12-17T03:18:17.773Z,1011.66
2017-12-17T03:18:43.875Z,1011.64
2017-12-17T03:19:09.990Z,1011.65
2017-12-17T03:19:36.098Z,1011.64
2017-12-17T03:20:02.197Z,1011.63
2017-12-17T03:20:28.289Z,1011.69
2017-12-17T03:20:54.388Z,1011.67
2017-12-17T03:21:20.492Z,1011.67
2017-12-17T03:21:46.601Z,1011.69
2017-12-17T03:22:12.704Z,1011.7
2017-12-17T03:22:38.803Z,1011.69
2017-12-17T03:23:04.901Z,1011.7
2017-12-17T03:23:31.006Z,1011.75
2017-12-17T03:23:57.102Z,1011.74
2017-12-17T03:24:23.200Z,1011.75
2017-12-17T03:24:49.303Z,1011.72
2017-12-17T03:25:15.398Z,1011.78
2017-12-17T03:25:41.502Z,1011.75
2017-12-17T03:26:07.603Z,1011.78
2017-12-17T03:26:33.699Z,1011.77
2017-12-17T03:26:59.798Z,1011.76
2017-12-17T03:27:25.901Z,1011.76
2017-12-17T03:27:52.004Z,1011.78
2017-12-17T03:28:18.101Z,1011.73
2017-12-17T03:28:44.202Z,1011.8
2017-12-17T03:29:10.297Z,1011.79
2017-12-17T03:29:36.402Z,1011.79
2017-12-17T03:30:02.516Z,1011.82
2017-12-17T03:30:28.616Z,1011.78
2017-12-17T03:30:54.714Z,1011.8
2017-12-17T03:31:20.815Z,1011.77
2017-12-17T03:31:46.908Z,1011.81
2017-12-17T03:32:13.028Z,1011.84
2017-12-17T03:32:39.265Z,1011.83
2017-12-17T03:33:05.228Z,1011.84
2017-12-17T03:33:31.334Z,1011.87
2017-12-17T03:33:57.431Z,1011.83
2017-12-17T03:34:23.528Z,1011.86
2017-12-17T03:34:49.631Z,1011.89
2017-12-17T03:35:15.723Z,1011.88
2017-12-17T03:35:41.822Z,1011.87
2017-12-17T03:36:07.927Z,1011.89
2017-12-17T03:36:34.031Z,1011.93
2017-12-17T03:37:00.149Z,1011.88
2017-12-17T03:37:26.250Z,1011.91
2017-12-17T03:37:52.343Z,1011.93
2017-12-17T03:38:18.442Z,1011.96
2017-12-17T03:38:44.546Z,1011.95
2017-12-17T03:39:10.652Z,1011.97
2017-12-17T03:39:36.768Z,1011.98
2017-12-17T03:40:02.895Z,1011.97
2017-12-17T03:40:28.990Z,1012.02
2017-12-17T03:40:55.087Z,1011.99
2017-12-17T03:41:21.191Z,1012.03
2017-12-17T03:41:47.290Z,1012.05
2017-12-17T03:42:13.388Z,1012.03
2017-12-17T03:42:39.488Z,1012.05
2017-12-17T03:43:05.587Z,1012.06
2017-12-17T03:43:31.691Z,1012.03
2017-12-17T03:43:57.788Z,1012.03
2017-12-17T03:44:23.888Z,1012.03
2017-12-17T03:44:49.985Z,1012.02
2017-12-17T03:45:16.089Z,1012.05
2017-12-17T03:45:42.181Z,1011.99
2017-12-17T03:46:08.280Z,1012.02
2017-12-17T03:46:34.386Z,1012
2017-12-17T03:47:00.483Z,1012.04
2017-12-17T03:47:26.578Z,1012.05
2017-12-17T03:47:52.679Z,1012.02
2017-12-17T03:48:18.775Z,1012.04
2017-12-17T03:48:44.898Z,1012.03
2017-12-17T03:49:10.993Z,1012.06
2017-12-17T03:49:37.126Z,1012.04
2017-12-17T03:50:03.230Z,1012.05
2017-12-17T03:50:29.324Z,1012.07
2017-12-17T03:50:55.424Z,1012.06
2017-12-17T03:51:21.532Z,1012.07
2017-12-17T03:51:47.644Z,1012.07
2017-12-17T03:52:13.776Z,1012.05
2017-12-17T03:52:39.873Z,1012.06
2017-12-17T03:53:05.968Z,1012.06
2017-12-17T03:53:32.070Z,1012.05
2017-12-17T03:53:58.175Z,1012.09
2017-12-17T03:54:24.274Z,1012.09
2017-12-17T03:54:50.374Z,1012.05
2017-12-17T03:55:16.477Z,1012.12
2017-12-17T03:55:42.578Z,1012.1
2017-12-17T03:56:08.677Z,1012.14
2017-12-17T03:56:34.778Z,1012.08
2017-12-17T03:57:00.888Z,1012.1
2017-12-17T03:57:26.985Z,1012.11
2017-12-17T03:57:53.092Z,1012.13
2017-12-17T03:58:19.208Z,1012.14
2017-12-17T03:58:45.313Z,1012.14
2017-12-17T03:59:11.416Z,1012.11
2017-12-17T03:59:37.512Z,1012.13
2017-12-17T04:00:03.607Z,1012.11
2017-12-17T04:00:29.708Z,1012.09
2017-12-17T04:00:55.820Z,1012.08
2017-12-17T04:01:21.928Z,1012.11
2017-12-17T04:01:48.030Z,1012.12
2017-12-17T04:02:14.124Z,1012.13
2017-12-17T04:02:40.233Z,1012.12
2017-12-17T04:03:06.329Z,1012.12
2017-12-17T04:03:32.435Z,1012.16
2017-12-17T04:03:58.549Z,1012.15
2017-12-17T04:04:24.646Z,1012.13
2017-12-17T04:04:50.746Z,1012.15
2017-12-17T04:05:16.843Z,1012.12
2017-12-17T04:05:42.953Z,1012.16
2017-12-17T04:06:09.042Z,1012.12
2017-12-17T04:06:35.147Z,1012.14
2017-12-17T04:07:01.248Z,1012.15
2017-12-17T04:07:27.344Z,1012.14
2017-12-17T04:07:53.446Z,1012.17
2017-12-17T04:08:19.560Z,1012.16
2017-12-17T04:08:45.663Z,1012.19
2017-12-17T04:09:11.755Z,1012.13
2017-12-17T04:09:37.860Z,1012.17
2017-12-17T04:10:03.958Z,1012.16
2017-12-17T04:10:30.068Z,1012.14
2017-12-17T04:10:56.190Z,1012.19
2017-12-17T04:11:22.289Z,1012.23
2017-12-17T04:11:48.391Z,1012.21
2017-12-17T04:12:14.490Z,1012.18
2017-12-17T04:12:40.592Z,1012.21
2017-12-17T04:13:06.695Z,1012.18
2017-12-17T04:13:32.790Z,1012.19
2017-12-17T04:13:58.888Z,1012.17
2017-12-17T04:14:24.989Z,1012.23
2017-12-17T04:14:51.085Z,1012.27
2017-12-17T04:15:17.187Z,1012.25
2017-12-17T04:15:43.282Z,1012.26
2017-12-17T04:16:09.384Z,1012.24
2017-12-17T04:16:35.478Z,1012.27
2017-12-17T04:17:01.579Z,1012.28
2017-12-17T04:17:27.679Z,1012.28
2017-12-17T04:17:53.777Z,1012.31
2017-12-17T04:18:19.879Z,1012.3
2017-12-17T04:18:45.977Z,1012.32
2017-12-17T04:19:12.074Z,1012.34
2017-12-17T04:19:38.175Z,1012.32
2017-12-17T04:20:04.293Z,1012.32
2017-12-17T04:20:30.387Z,1012.35
2017-12-17T04:20:56.504Z,1012.29
2017-12-17T04:21:22.639Z,1012.35
2017-12-17T04:21:48.742Z,1012.34
2017-12-17T04:22:14.851Z,1012.37
2017-12-17T04:22:40.961Z,1012.37
2017-12-17T04:23:07.062Z,1012.37
2017-12-17T04:23:33.167Z,1012.38
2017-12-17T04:23:59.265Z,1012.42
2017-12-17T04:24:25.358Z,1012.41
2017-12-17T04:24:51.459Z,1012.34
2017-12-17T04:25:17.561Z,1012.39
2017-12-17T04:25:43.660Z,1012.41
2017-12-17T04:26:09.759Z,1012.36
2017-12-17T04:26:35.857Z,1012.36
2017-12-17T04:27:01.953Z,1012.4
2017-12-17T04:27:28.061Z,1012.38
2017-12-17T04:27:54.154Z,1012.36
2017-12-17T04:28:20.258Z,1012.37
2017-12-17T04:28:46.351Z,1012.41
2017-12-17T04:29:12.453Z,1012.41
2017-12-17T04:29:38.553Z,1012.4
2017-12-17T04:30:04.657Z,1012.41
2017-12-17T04:30:30.757Z,1012.43
2017-12-17T04:30:56.855Z,1012.38
2017-12-17T04:31:22.951Z,1012.41
2017-12-17T04:31:49.054Z,1012.39
2017-12-17T04:32:15.148Z,1012.41
2017-12-17T04:32:41.249Z,1012.37
2017-12-17T04:33:07.349Z,1012.42
2017-12-17T04:33:33.451Z,1012.4
2017-12-17T04:33:59.552Z,1012.42
2017-12-17T04:34:25.649Z,1012.37
2017-12-17T04:34:51.746Z,1012.39
2017-12-17T04:35:17.848Z,1012.44
2017-12-17T04:35:43.944Z,1012.43
2017-12-17T04:36:10.045Z,1012.43
2017-12-17T04:36:36.149Z,1012.41
2017-12-17T04:37:02.245Z,1012.44
2017-12-17T04:37:28.349Z,1012.42
2017-12-17T04:37:54.443Z,1012.46
2017-12-17T04:38:20.546Z,1012.4
2017-12-17T04:38:46.642Z,1012.44
2017-12-17T04:39:12.746Z,1012.45
2017-12-17T04:39:38.848Z,1012.48
2017-12-17T04:40:04.945Z,1012.47
2017-12-17T04:40:31.047Z,1012.43
2017-12-17T04:40:57.149Z,1012.48
2017-12-17T04:41:23.244Z,1012.49
2017-12-17T04:41:49.348Z,1012.51
2017-12-17T04:42:15.440Z,1012.48
2017-12-17T04:42:41.542Z,1012.51
2017-12-17T04:43:07.639Z,1012.47
2017-12-17T04:43:33.741Z,1012.5
2017-12-17T04:43:59.834Z,1012.46
2017-12-17T04:44:25.932Z,1012.47
2017-12-17T04:44:52.035Z,1012.5
2017-12-17T04:45:18.129Z,1012.52
2017-12-17T04:45:44.224Z,1012.53
2017-12-17T04:46:10.322Z,1012.51
2017-12-17T04:46:36.469Z,1012.54
2017-12-17T04:47:02.585Z,1012.57
2017-12-17T04:47:28.682Z,1012.57
2017-12-17T04:47:54.790Z,1012.54
2017-12-17T04:48:20.900Z,1012.56
2017-12-17T04:48:47.002Z,1012.58
2017-12-17T04:49:13.094Z,1012.56
2017-12-17T04:49:39.200Z,1012.59
2017-12-17T04:50:05.299Z,1012.54
2017-12-17T04:50:31.401Z,1012.6
2017-12-17T04:50:57.502Z,1012.6
2017-12-17T04:51:23.593Z,1012.62
2017-12-17T04:51:49.715Z,1012.61
2017-12-17T04:52:15.812Z,1012.63
2017-12-17T04:52:41.947Z,1012.61
2017-12-17T04:53:08.050Z,1012.61
2017-12-17T04:53:34.176Z,1012.65
2017-12-17T04:54:00.279Z,1012.68
2017-12-17T04:54:26.378Z,1012.64
2017-12-17T04:54:52.475Z,1012.65
2017-12-17T04:55:18.582Z,1012.66
2017-12-17T04:55:44.721Z,1012.67
2017-12-17T04:56:10.811Z,1012.69
2017-12-17T04:56:36.914Z,1012.68
2017-12-17T04:57:03.012Z,1012.72
2017-12-17T04:57:29.127Z,1012.71
2017-12-17T04:57:55.230Z,1012.71
2017-12-17T04:58:21.331Z,1012.71
2017-12-17T04:58:47.432Z,1012.72
2017-12-17T04:59:13.531Z,1012.74
2017-12-17T04:59:39.634Z,1012.74
2017-12-17T05:00:05.733Z,1012.72
2017-12-17T05:00:31.832Z,1012.76
2017-12-17T05:00:57.926Z,1012.73
2017-12-17T05:01:24.030Z,1012.74
2017-12-17T05:01:50.122Z,1012.77
2017-12-17T05:02:16.221Z,1012.76
2017-12-17T05:02:42.321Z,1012.74
2017-12-17T05:03:08.413Z,1012.73
2017-12-17T05:03:34.521Z,1012.81
2017-12-17T05:04:00.617Z,1012.79
2017-12-17T05:04:26.714Z,1012.79
2017-12-17T05:04:52.814Z,1012.81
2017-12-17T05:05:18.917Z,1012.77
2017-12-17T05:05:45.016Z,1012.83
2017-12-17T05:06:11.113Z,1012.83
2017-12-17T05:06:37.218Z,1012.85
2017-12-17T05:07:03.316Z,1012.88
2017-12-17T05:07:29.414Z,1012.86
2017-12-17T05:07:55.510Z,1012.83
2017-12-17T05:08:21.611Z,1012.84
2017-12-17T05:08:47.713Z,1012.83
2017-12-17T05:09:13.821Z,1012.83
2017-12-17T05:09:39.920Z,1012.81
2017-12-17T05:10:06.018Z,1012.79
2017-12-17T05:10:32.120Z,1012.83
2017-12-17T05:10:58.219Z,1012.81
2017-12-17T05:11:24.322Z,1012.82
2017-12-17T05:11:50.422Z,1012.82
2017-12-17T05:12:16.527Z,1012.78
2017-12-17T05:12:42.626Z,1012.79
2017-12-17T05:13:08.724Z,1012.83
2017-12-17T05:13:34.846Z,1012.81
2017-12-17T05:14:00.965Z,1012.79
2017-12-17T05:14:27.066Z,1012.81
2017-12-17T05:14:53.167Z,1012.84
2017-12-17T05:15:19.262Z,1012.84
2017-12-17T05:15:45.369Z,1012.79
2017-12-17T05:16:11.460Z,1012.82
2017-12-17T05:16:37.556Z,1012.83